Etusivu
METAR-TAF:

METAR-TAF

Lentoasemat :

Bonaire, Alankomaiden Antillit

Leveyspiiri: 12-09N, Pituuspiiri: 068-17W, korkeus merenpinnasta: 6 m

Tämänhetkinen sää

Tämä raportti tehtiin 1 tunti ja 17 minuuttia sitten, kello 14.55 UTC
Tuuli 15 kn idästä/kaakosta, vaihdellen idän/koillisen ja etelän/kaakon välillä
Lämpötila 31°C
Kosteus 71%
Ilmanpaine 1014 hPa
Näkyvyys 10 km tai enemmän
Muutamia pilviä 1700 ft:n korkeudessa
Hajanaisia pilviä 2200 ft:n korkeudessa

METAR: TNCB 131455Z 11015KT 070V160 9999 FEW017 SCT022 31/25 Q1014

Aika: 12:12 (16:12 UTC)

Sääennuste

Tämä raportti tehtiin 4 tuntia ja 51 minuuttia sitten, kello 11.21 UTC
Ennuste voimassa 13. päivästä klo 12 UTC - 14. päivään klo 18 UTC
Tuuli 13 kn idästä
Näkyvyys 10 km tai enemmän
Hajanaisia pilviä 1800 ft:n korkeudessa

TAF: TNCB 131121Z 1312/1418 09013KT 9999 SCT018

Säähavainnot ja -ennusteet yli 4000 lentoasemalta (METAR- ja TAF-raportit).

Käytössä olevat sääasemat on merkitty karttaan keltaisilla ja punaisilla pisteillä.

Aseta hiiri pisteen päälle nähdäksesi sääaseman nimen.

Klikkaa sitten nähdäksesi säähavainnot ja -ennusteet.

Kartan vaihtaminen: klikkaa mustalla rastilla varustettuja vihreitä pisteitä, niin voit zoomata sisään; viivalla varustettua vihreää pistettä, niin voit zoomata ulos tai vihreitä nuolia, niin pääset viereisille kartoille.


METAR-TAF: